Edgewater, Wisconsin
Current Conditions -  °F | °C
As of 8:53 AM on Saturday 20 Dec 2014 (Local Time) from KHYR Reporting Station
Haze Haze  
Wind Chill: 19°   Ceiling: 1400
Heat Index: 26°   Visibility: 4mi
Dew Point: 22°   Wind: 6mph
Humidity: 84%   Direction: 170°S
Pressure: 30.16"   Gusts: NA
Location:  45.74°N, 91.48°W
Report Text: KHYR 201453Z AUTO 17005KT 4SM BR OVC014 M03/M06 A3016 RMK AO2 SLP234 T10331056 58001
Loading
Personal Weather Stations






























Interactive Weather Map New forecast layout! Learn more

10-Day Weather Forecast

Advertisements
Track Severe Weather on mobile